KLM1607 EHAM-LIRF
Flight info
| Callsign | KLM1607 |
|---|---|
| Flight time | 1h 56m |
| Altitude | 35000 |
| Route | EDUPO Z739 MISGO DCT ASBON DCT TUSUK DCT ULNOK L607 ABUKA DCT TEDGO DCT BATUB DCT TIRUL M738 NATAG DCT LORLO DCT GAVRA DCT RITEB |
| Aircraft | B738/M-SDE2E3FGHIRWXY/LB1 |
Departure
| Time | 2026-05-04 17:15 |
|---|---|
| Airport | Amsterdam Airport Schiphol (EHAM) |
Arrival
| Time | 2026-05-04 19:11 |
|---|---|
| Airport | Rome–Fiumicino Leonardo da Vinci International Airport (LIRF) |
| Time | Latitude | Longitude | Altitude | Speed | Heading |
|---|---|---|---|---|---|
| 2026-05-04 16:18 | 52.30433 | 4.76596 | -4 ft | 0 kts | 59° |
| 2026-05-04 16:58 | 52.30419 | 4.76560 | -4 ft | 2 kts | 58° |
| 2026-05-04 16:58 | 52.30417 | 4.76537 | -4 ft | 2 kts | 111° |
| 2026-05-04 16:59 | 52.30427 | 4.76517 | -4 ft | 0 kts | 139° |
| 2026-05-04 17:01 | 52.30427 | 4.76518 | -4 ft | 0 kts | 139° |
| 2026-05-04 17:02 | 52.30382 | 4.76566 | -4 ft | 9 kts | 152° |
| 2026-05-04 17:02 | 52.30227 | 4.76348 | -4 ft | 19 kts | 238° |
| 2026-05-04 17:03 | 52.30157 | 4.76164 | -4 ft | 18 kts | 238° |
| 2026-05-04 17:03 | 52.30091 | 4.75991 | -4 ft | 17 kts | 239° |
| 2026-05-04 17:03 | 52.29969 | 4.75671 | -4 ft | 16 kts | 238° |
| 2026-05-04 17:04 | 52.29843 | 4.75340 | -4 ft | 14 kts | 244° |
| 2026-05-04 17:04 | 52.29927 | 4.75031 | -4 ft | 16 kts | 311° |
| 2026-05-04 17:05 | 52.30105 | 4.74700 | -4 ft | 22 kts | 311° |
| 2026-05-04 17:05 | 52.30336 | 4.74275 | -3 ft | 20 kts | 307° |
| 2026-05-04 17:06 | 52.30312 | 4.74162 | -3 ft | 13 kts | 210° |
| 2026-05-04 17:06 | 52.30190 | 4.74083 | -4 ft | 24 kts | 192° |
| 2026-05-04 17:07 | 52.29930 | 4.73743 | -4 ft | 23 kts | 245° |
| 2026-05-04 17:07 | 52.29908 | 4.73579 | -4 ft | 22 kts | 272° |
| 2026-05-04 17:07 | 52.29982 | 4.73300 | -5 ft | 20 kts | 342° |
| 2026-05-04 17:07 | 52.30118 | 4.73297 | -5 ft | 19 kts | 3° |
| 2026-05-04 17:08 | 52.30255 | 4.73310 | -5 ft | 20 kts | 3° |
| 2026-05-04 17:08 | 52.30579 | 4.73339 | -4 ft | 25 kts | 4° |
| 2026-05-04 17:08 | 52.30765 | 4.73356 | -4 ft | 28 kts | 2° |
| 2026-05-04 17:09 | 52.30970 | 4.73374 | -4 ft | 30 kts | 3° |
| 2026-05-04 17:09 | 52.31189 | 4.73395 | -4 ft | 32 kts | 4° |
| 2026-05-04 17:09 | 52.31425 | 4.73416 | -4 ft | 34 kts | 3° |
| 2026-05-04 17:10 | 52.31918 | 4.73463 | -4 ft | 28 kts | 3° |
| 2026-05-04 17:10 | 52.32321 | 4.73022 | -4 ft | 22 kts | 319° |
| 2026-05-04 17:11 | 52.32438 | 4.72858 | -4 ft | 21 kts | 319° |
| 2026-05-04 17:11 | 52.32548 | 4.72701 | -4 ft | 20 kts | 320° |
| 2026-05-04 17:11 | 52.32802 | 4.72288 | -3 ft | 24 kts | 312° |
| 2026-05-04 17:12 | 52.32836 | 4.72072 | -3 ft | 19 kts | 268° |
| 2026-05-04 17:12 | 52.32968 | 4.71720 | -4 ft | 17 kts | 309° |
| 2026-05-04 17:13 | 52.33369 | 4.70978 | -4 ft | 17 kts | 310° |
| 2026-05-04 17:14 | 52.33522 | 4.70944 | -4 ft | 38 kts | 4° |
| 2026-05-04 17:14 | 52.34027 | 4.70991 | -4 ft | 104 kts | 2° |
| 2026-05-04 17:14 | 52.36099 | 4.71121 | 552 ft | 160 kts | 2° |
| 2026-05-04 17:15 | 52.37242 | 4.71192 | 1021 ft | 175 kts | 5° |
| 2026-05-04 17:15 | 52.39763 | 4.71504 | 2052 ft | 196 kts | 6° |
| 2026-05-04 17:16 | 52.42712 | 4.72149 | 2853 ft | 230 kts | 22° |
| 2026-05-04 17:16 | 52.47000 | 4.76743 | 4595 ft | 262 kts | 46° |
| 2026-05-04 17:17 | 52.47994 | 4.79208 | 5292 ft | 268 kts | 67° |
| 2026-05-04 17:17 | 52.47441 | 4.88153 | 7392 ft | 283 kts | 130° |
| 2026-05-04 17:18 | 52.46032 | 4.90397 | 8133 ft | 284 kts | 139° |
| 2026-05-04 17:18 | 52.43029 | 4.94671 | 9455 ft | 291 kts | 139° |
| 2026-05-04 17:19 | 52.40006 | 4.99206 | 10525 ft | 308 kts | 138° |
| 2026-05-04 17:19 | 52.36790 | 5.04131 | 11619 ft | 324 kts | 137° |
| 2026-05-04 17:20 | 52.33510 | 5.09196 | 12948 ft | 331 kts | 136° |
| 2026-05-04 17:20 | 52.30346 | 5.14739 | 14319 ft | 338 kts | 132° |
| 2026-05-04 17:20 | 52.28790 | 5.17630 | 15022 ft | 340 kts | 131° |
| 2026-05-04 17:21 | 52.25651 | 5.23427 | 16412 ft | 345 kts | 133° |
| 2026-05-04 17:21 | 52.22608 | 5.29494 | 17634 ft | 353 kts | 127° |
| 2026-05-04 17:22 | 52.21208 | 5.32754 | 18261 ft | 355 kts | 125° |
| 2026-05-04 17:22 | 52.19808 | 5.36104 | 18870 ft | 358 kts | 125° |
| 2026-05-04 17:23 | 52.15494 | 5.46205 | 20518 ft | 369 kts | 126° |
| 2026-05-04 17:23 | 52.13994 | 5.49646 | 21087 ft | 372 kts | 127° |
| 2026-05-04 17:23 | 52.10979 | 5.56531 | 22113 ft | 378 kts | 127° |
| 2026-05-04 17:24 | 52.09465 | 5.59980 | 22659 ft | 380 kts | 127° |
| 2026-05-04 17:24 | 52.04742 | 5.70438 | 24109 ft | 388 kts | 132° |
| 2026-05-04 17:25 | 52.02984 | 5.73804 | 24667 ft | 389 kts | 134° |
| 2026-05-04 17:25 | 51.99408 | 5.80330 | 25652 ft | 392 kts | 135° |
| 2026-05-04 17:26 | 51.95766 | 5.86967 | 26604 ft | 396 kts | 135° |
| 2026-05-04 17:26 | 51.90300 | 5.97076 | 28010 ft | 398 kts | 135° |
| 2026-05-04 17:27 | 51.86616 | 6.03913 | 28671 ft | 406 kts | 135° |
| 2026-05-04 17:27 | 51.82862 | 6.10850 | 29484 ft | 410 kts | 136° |
| 2026-05-04 17:28 | 51.79078 | 6.17792 | 30229 ft | 414 kts | 136° |
| 2026-05-04 17:29 | 51.73313 | 6.28319 | 31246 ft | 421 kts | 136° |
| 2026-05-04 17:29 | 51.67333 | 6.39194 | 32225 ft | 428 kts | 137° |
| 2026-05-04 17:30 | 51.61324 | 6.50080 | 33215 ft | 433 kts | 137° |
| 2026-05-04 17:31 | 51.57362 | 6.57246 | 34114 ft | 429 kts | 137° |
| 2026-05-04 17:31 | 51.51369 | 6.68035 | 34890 ft | 429 kts | 139° |
| 2026-05-04 17:32 | 51.47369 | 6.75201 | 34959 ft | 435 kts | 139° |
| 2026-05-04 17:33 | 51.38890 | 6.89137 | 34966 ft | 431 kts | 149° |
| 2026-05-04 17:34 | 51.28917 | 6.99436 | 34969 ft | 426 kts | 155° |
| 2026-05-04 17:35 | 51.16324 | 7.11814 | 34964 ft | 426 kts | 154° |
| 2026-05-04 17:36 | 51.11281 | 7.16816 | 34959 ft | 427 kts | 154° |
| 2026-05-04 17:36 | 51.06198 | 7.21863 | 34955 ft | 430 kts | 154° |
| 2026-05-04 17:37 | 51.01163 | 7.26859 | 34953 ft | 429 kts | 154° |
| 2026-05-04 17:37 | 50.96068 | 7.31901 | 34956 ft | 430 kts | 154° |
| 2026-05-04 17:38 | 50.90978 | 7.36920 | 34959 ft | 432 kts | 154° |
| 2026-05-04 17:38 | 50.85892 | 7.41923 | 34956 ft | 431 kts | 154° |
| 2026-05-04 17:39 | 50.78193 | 7.49470 | 34956 ft | 432 kts | 154° |
| 2026-05-04 17:39 | 50.73130 | 7.54420 | 34959 ft | 432 kts | 154° |
| 2026-05-04 17:40 | 50.68063 | 7.59499 | 34958 ft | 432 kts | 152° |
| 2026-05-04 17:40 | 50.63037 | 7.64732 | 34964 ft | 435 kts | 152° |
| 2026-05-04 17:41 | 50.57943 | 7.69746 | 34965 ft | 430 kts | 158° |
| 2026-05-04 17:41 | 50.52597 | 7.73811 | 34962 ft | 428 kts | 161° |
| 2026-05-04 17:42 | 50.47192 | 7.77698 | 34962 ft | 429 kts | 161° |
| 2026-05-04 17:42 | 50.41811 | 7.81664 | 34957 ft | 427 kts | 160° |
| 2026-05-04 17:43 | 50.36468 | 7.85682 | 34961 ft | 428 kts | 159° |
| 2026-05-04 17:43 | 50.31132 | 7.89741 | 34957 ft | 428 kts | 159° |
| 2026-05-04 17:44 | 50.25770 | 7.93832 | 34954 ft | 428 kts | 159° |
| 2026-05-04 17:44 | 50.20399 | 7.97930 | 34952 ft | 429 kts | 159° |
| 2026-05-04 17:45 | 50.15055 | 8.01994 | 34951 ft | 428 kts | 159° |
| 2026-05-04 17:45 | 50.09672 | 8.06085 | 34957 ft | 429 kts | 159° |
| 2026-05-04 17:46 | 50.04311 | 8.10147 | 34946 ft | 428 kts | 159° |
| 2026-05-04 17:46 | 49.98913 | 8.14221 | 34951 ft | 430 kts | 159° |
| 2026-05-04 17:47 | 49.93528 | 8.18278 | 34952 ft | 429 kts | 159° |
| 2026-05-04 17:47 | 49.88131 | 8.22327 | 34952 ft | 430 kts | 159° |
| 2026-05-04 17:48 | 49.82758 | 8.26353 | 34950 ft | 428 kts | 159° |
| 2026-05-04 17:48 | 49.77404 | 8.30356 | 34948 ft | 429 kts | 158° |
| 2026-05-04 17:49 | 49.72035 | 8.34351 | 34953 ft | 429 kts | 159° |
| 2026-05-04 17:49 | 49.66692 | 8.38338 | 34951 ft | 427 kts | 158° |
| 2026-05-04 17:50 | 49.61335 | 8.42316 | 34952 ft | 430 kts | 158° |
| 2026-05-04 17:50 | 49.55977 | 8.46282 | 34948 ft | 427 kts | 158° |
| 2026-05-04 17:51 | 49.50592 | 8.50256 | 34950 ft | 429 kts | 158° |
| 2026-05-04 17:51 | 49.45234 | 8.54201 | 34952 ft | 429 kts | 158° |
| 2026-05-04 17:52 | 49.39816 | 8.58179 | 34955 ft | 430 kts | 158° |
| 2026-05-04 17:52 | 49.34370 | 8.62182 | 34954 ft | 431 kts | 158° |
| 2026-05-04 17:53 | 49.28988 | 8.66122 | 34959 ft | 429 kts | 159° |
| 2026-05-04 17:53 | 49.23582 | 8.70063 | 34962 ft | 430 kts | 159° |
| 2026-05-04 17:54 | 49.18205 | 8.73973 | 34957 ft | 430 kts | 158° |
| 2026-05-04 17:54 | 49.12817 | 8.77888 | 34958 ft | 430 kts | 158° |
| 2026-05-04 17:55 | 49.07372 | 8.81831 | 34958 ft | 430 kts | 158° |
| 2026-05-04 17:55 | 49.01952 | 8.85745 | 34957 ft | 429 kts | 158° |
| 2026-05-04 17:56 | 48.96540 | 8.89641 | 34961 ft | 431 kts | 158° |
| 2026-05-04 17:56 | 48.91106 | 8.93544 | 34962 ft | 430 kts | 158° |
| 2026-05-04 17:57 | 48.85698 | 8.97425 | 34963 ft | 431 kts | 158° |
| 2026-05-04 17:57 | 48.80309 | 9.01285 | 34965 ft | 431 kts | 158° |
| 2026-05-04 17:58 | 48.74873 | 9.05168 | 34964 ft | 431 kts | 158° |
| 2026-05-04 17:58 | 48.69484 | 9.09006 | 34965 ft | 430 kts | 158° |
| 2026-05-04 17:59 | 48.64068 | 9.12851 | 34968 ft | 431 kts | 158° |
| 2026-05-04 18:00 | 48.55954 | 9.18601 | 34972 ft | 430 kts | 158° |
| 2026-05-04 18:00 | 48.50516 | 9.22444 | 34972 ft | 430 kts | 157° |
| 2026-05-04 18:01 | 48.45126 | 9.26244 | 34966 ft | 430 kts | 158° |
| 2026-05-04 18:01 | 48.39733 | 9.30033 | 34964 ft | 430 kts | 158° |
| 2026-05-04 18:02 | 48.31601 | 9.35726 | 34968 ft | 429 kts | 157° |
| 2026-05-04 18:02 | 48.26181 | 9.39511 | 34968 ft | 429 kts | 157° |
| 2026-05-04 18:03 | 48.20771 | 9.43281 | 34966 ft | 429 kts | 157° |
| 2026-05-04 18:03 | 48.15369 | 9.47032 | 34969 ft | 428 kts | 157° |
| 2026-05-04 18:04 | 48.09994 | 9.50751 | 34973 ft | 429 kts | 157° |
| 2026-05-04 18:05 | 48.01947 | 9.56496 | 34961 ft | 429 kts | 152° |
| 2026-05-04 18:05 | 47.96900 | 9.61209 | 34965 ft | 431 kts | 147° |
| 2026-05-04 18:06 | 47.89519 | 9.68879 | 34964 ft | 432 kts | 147° |
| 2026-05-04 18:06 | 47.84596 | 9.73990 | 34971 ft | 432 kts | 148° |
| 2026-05-04 18:07 | 47.79622 | 9.79094 | 34974 ft | 434 kts | 148° |
| 2026-05-04 18:07 | 47.74645 | 9.84155 | 34984 ft | 435 kts | 148° |
| 2026-05-04 18:08 | 47.69650 | 9.89211 | 34980 ft | 435 kts | 148° |
| 2026-05-04 18:08 | 47.64651 | 9.94249 | 35005 ft | 435 kts | 148° |
| 2026-05-04 18:09 | 47.54641 | 10.04300 | 35031 ft | 438 kts | 148° |
| 2026-05-04 18:10 | 47.49600 | 10.09347 | 35030 ft | 438 kts | 148° |
| 2026-05-04 18:10 | 47.44574 | 10.14369 | 35043 ft | 441 kts | 148° |
| 2026-05-04 18:11 | 47.39494 | 10.19437 | 35055 ft | 440 kts | 148° |
| 2026-05-04 18:11 | 47.34407 | 10.24496 | 35066 ft | 442 kts | 148° |
| 2026-05-04 18:12 | 47.29332 | 10.29531 | 35082 ft | 443 kts | 149° |
| 2026-05-04 18:12 | 47.24202 | 10.34611 | 35089 ft | 444 kts | 149° |
| 2026-05-04 18:13 | 47.19086 | 10.39667 | 35092 ft | 444 kts | 148° |
| 2026-05-04 18:14 | 47.11414 | 10.47224 | 35095 ft | 445 kts | 148° |
| 2026-05-04 18:14 | 47.06195 | 10.52054 | 35094 ft | 444 kts | 154° |
| 2026-05-04 18:15 | 46.94639 | 10.58151 | 35130 ft | 441 kts | 166° |
| 2026-05-04 18:16 | 46.88740 | 10.60674 | 35136 ft | 442 kts | 166° |
| 2026-05-04 18:16 | 46.82859 | 10.63228 | 35136 ft | 441 kts | 166° |
| 2026-05-04 18:17 | 46.73965 | 10.67168 | 35142 ft | 442 kts | 166° |
| 2026-05-04 18:18 | 46.65089 | 10.70943 | 35133 ft | 441 kts | 168° |
| 2026-05-04 18:18 | 46.59130 | 10.73344 | 35136 ft | 441 kts | 168° |
| 2026-05-04 18:19 | 46.50239 | 10.76927 | 35131 ft | 442 kts | 168° |
| 2026-05-04 18:19 | 46.44321 | 10.79320 | 35129 ft | 442 kts | 168° |
| 2026-05-04 18:20 | 46.38436 | 10.81704 | 35128 ft | 443 kts | 168° |
| 2026-05-04 18:20 | 46.32491 | 10.84108 | 35126 ft | 443 kts | 168° |
| 2026-05-04 18:21 | 46.26552 | 10.86506 | 35123 ft | 443 kts | 168° |
| 2026-05-04 18:21 | 46.20622 | 10.88897 | 35117 ft | 443 kts | 168° |
| 2026-05-04 18:22 | 46.14722 | 10.91270 | 35119 ft | 442 kts | 168° |
| 2026-05-04 18:22 | 46.08807 | 10.93644 | 35110 ft | 442 kts | 168° |
| 2026-05-04 18:23 | 46.02835 | 10.96034 | 35110 ft | 442 kts | 168° |
| 2026-05-04 18:23 | 45.96878 | 10.98413 | 35100 ft | 442 kts | 168° |
| 2026-05-04 18:24 | 45.90948 | 11.00775 | 35095 ft | 443 kts | 168° |
| 2026-05-04 18:24 | 45.84993 | 11.03138 | 35086 ft | 445 kts | 168° |
| 2026-05-04 18:25 | 45.79052 | 11.05493 | 35114 ft | 445 kts | 168° |
| 2026-05-04 18:25 | 45.73101 | 11.07850 | 35078 ft | 443 kts | 168° |
| 2026-05-04 18:26 | 45.67166 | 11.10194 | 35064 ft | 445 kts | 168° |
| 2026-05-04 18:26 | 45.61194 | 11.12547 | 35099 ft | 444 kts | 168° |
| 2026-05-04 18:27 | 45.55227 | 11.14893 | 35168 ft | 445 kts | 168° |
| 2026-05-04 18:27 | 45.49287 | 11.17221 | 35060 ft | 444 kts | 168° |
| 2026-05-04 18:28 | 45.43314 | 11.19559 | 35054 ft | 447 kts | 168° |
| 2026-05-04 18:28 | 45.37292 | 11.21910 | 35051 ft | 446 kts | 168° |
| 2026-05-04 18:29 | 45.31324 | 11.24236 | 35048 ft | 446 kts | 168° |
| 2026-05-04 18:29 | 45.25363 | 11.26553 | 35044 ft | 446 kts | 168° |
| 2026-05-04 18:30 | 45.16369 | 11.30041 | 35043 ft | 446 kts | 168° |
| 2026-05-04 18:31 | 45.10386 | 11.32355 | 35041 ft | 447 kts | 168° |
| 2026-05-04 18:31 | 45.04416 | 11.34658 | 35038 ft | 446 kts | 168° |
| 2026-05-04 18:32 | 44.98413 | 11.36969 | 35037 ft | 447 kts | 168° |
| 2026-05-04 18:32 | 44.92453 | 11.39258 | 35044 ft | 448 kts | 168° |
| 2026-05-04 18:33 | 44.86415 | 11.41572 | 35049 ft | 449 kts | 168° |
| 2026-05-04 18:33 | 44.80407 | 11.43871 | 35043 ft | 448 kts | 168° |
| 2026-05-04 18:34 | 44.74403 | 11.46163 | 35053 ft | 450 kts | 168° |
| 2026-05-04 18:34 | 44.68357 | 11.48463 | 35054 ft | 450 kts | 168° |
| 2026-05-04 18:35 | 44.62344 | 11.50748 | 35051 ft | 450 kts | 168° |
| 2026-05-04 18:35 | 44.56286 | 11.53046 | 35053 ft | 451 kts | 169° |
| 2026-05-04 18:36 | 44.50252 | 11.55329 | 35055 ft | 452 kts | 169° |
| 2026-05-04 18:36 | 44.44175 | 11.57622 | 35066 ft | 455 kts | 169° |
| 2026-05-04 18:37 | 44.38092 | 11.59914 | 35067 ft | 453 kts | 169° |
| 2026-05-04 18:37 | 44.31985 | 11.62211 | 35073 ft | 454 kts | 169° |
| 2026-05-04 18:38 | 44.25889 | 11.64498 | 35077 ft | 455 kts | 169° |
| 2026-05-04 18:38 | 44.19822 | 11.66769 | 35085 ft | 457 kts | 170° |
| 2026-05-04 18:39 | 44.13699 | 11.69056 | 35087 ft | 457 kts | 170° |
| 2026-05-04 18:39 | 44.07520 | 11.71359 | 35094 ft | 458 kts | 170° |
| 2026-05-04 18:40 | 44.01398 | 11.73636 | 35097 ft | 458 kts | 170° |
| 2026-05-04 18:40 | 43.95202 | 11.75933 | 35100 ft | 459 kts | 170° |
| 2026-05-04 18:40 | 43.92147 | 11.77066 | 34927 ft | 458 kts | 170° |
| 2026-05-04 18:41 | 43.89092 | 11.78200 | 34635 ft | 453 kts | 171° |
| 2026-05-04 18:41 | 43.86059 | 11.79328 | 34319 ft | 449 kts | 171° |
| 2026-05-04 18:41 | 43.83059 | 11.80438 | 33801 ft | 451 kts | 170° |
| 2026-05-04 18:41 | 43.80017 | 11.81559 | 33281 ft | 450 kts | 171° |
| 2026-05-04 18:42 | 43.76981 | 11.82675 | 32808 ft | 445 kts | 171° |
| 2026-05-04 18:42 | 43.74025 | 11.83705 | 32345 ft | 440 kts | 172° |
| 2026-05-04 18:42 | 43.71056 | 11.84670 | 31880 ft | 438 kts | 172° |
| 2026-05-04 18:42 | 43.68046 | 11.85612 | 31410 ft | 441 kts | 173° |
| 2026-05-04 18:43 | 43.65076 | 11.86530 | 30952 ft | 444 kts | 173° |
| 2026-05-04 18:43 | 43.62071 | 11.87460 | 30493 ft | 446 kts | 173° |
| 2026-05-04 18:43 | 43.59015 | 11.88411 | 30035 ft | 447 kts | 172° |
| 2026-05-04 18:43 | 43.56014 | 11.89351 | 29600 ft | 447 kts | 172° |
| 2026-05-04 18:44 | 43.52980 | 11.90307 | 29157 ft | 446 kts | 172° |
| 2026-05-04 18:44 | 43.50952 | 11.90947 | 28862 ft | 446 kts | 172° |
| 2026-05-04 18:44 | 43.46922 | 11.92221 | 28275 ft | 447 kts | 172° |
| 2026-05-04 18:44 | 43.43891 | 11.93179 | 27836 ft | 447 kts | 171° |
| 2026-05-04 18:45 | 43.40881 | 11.94131 | 27399 ft | 447 kts | 171° |
| 2026-05-04 18:45 | 43.37838 | 11.95093 | 26958 ft | 446 kts | 171° |
| 2026-05-04 18:45 | 43.34833 | 11.96043 | 26524 ft | 446 kts | 171° |
| 2026-05-04 18:45 | 43.31810 | 11.96997 | 26086 ft | 446 kts | 170° |
| 2026-05-04 18:46 | 43.28786 | 11.97950 | 25645 ft | 446 kts | 170° |
| 2026-05-04 18:46 | 43.25763 | 11.98902 | 25209 ft | 446 kts | 170° |
| 2026-05-04 18:46 | 43.22774 | 11.99844 | 24775 ft | 439 kts | 169° |
| 2026-05-04 18:46 | 43.19831 | 12.00772 | 24334 ft | 431 kts | 169° |
| 2026-05-04 18:47 | 43.16925 | 12.01687 | 23894 ft | 424 kts | 169° |
| 2026-05-04 18:47 | 43.14087 | 12.02580 | 23457 ft | 416 kts | 169° |
| 2026-05-04 18:47 | 43.11303 | 12.03454 | 23022 ft | 410 kts | 169° |
| 2026-05-04 18:47 | 43.08535 | 12.04322 | 22587 ft | 403 kts | 169° |
| 2026-05-04 18:48 | 43.05824 | 12.05170 | 22156 ft | 397 kts | 169° |
| 2026-05-04 18:48 | 43.03167 | 12.06001 | 21724 ft | 391 kts | 169° |
| 2026-05-04 18:48 | 43.00530 | 12.06824 | 21293 ft | 386 kts | 169° |
| 2026-05-04 18:48 | 42.97973 | 12.07622 | 20872 ft | 381 kts | 169° |
| 2026-05-04 18:49 | 42.95401 | 12.08423 | 20446 ft | 377 kts | 169° |
| 2026-05-04 18:49 | 42.92855 | 12.09214 | 20018 ft | 376 kts | 169° |
| 2026-05-04 18:49 | 42.90289 | 12.10012 | 19585 ft | 374 kts | 169° |
| 2026-05-04 18:49 | 42.87796 | 12.10786 | 19166 ft | 372 kts | 169° |
| 2026-05-04 18:50 | 42.85257 | 12.11575 | 18741 ft | 370 kts | 169° |
| 2026-05-04 18:50 | 42.82782 | 12.12344 | 18322 ft | 368 kts | 169° |
| 2026-05-04 18:50 | 42.80293 | 12.13118 | 17907 ft | 366 kts | 170° |
| 2026-05-04 18:50 | 42.77802 | 12.13892 | 17480 ft | 364 kts | 169° |
| 2026-05-04 18:51 | 42.75362 | 12.14648 | 17076 ft | 362 kts | 170° |
| 2026-05-04 18:51 | 42.72884 | 12.15418 | 16655 ft | 360 kts | 169° |
| 2026-05-04 18:51 | 42.70491 | 12.16320 | 16228 ft | 359 kts | 164° |
| 2026-05-04 18:51 | 42.68178 | 12.17626 | 15893 ft | 358 kts | 156° |
| 2026-05-04 18:52 | 42.66014 | 12.19212 | 15587 ft | 356 kts | 152° |
| 2026-05-04 18:52 | 42.63908 | 12.20921 | 15262 ft | 349 kts | 150° |
| 2026-05-04 18:52 | 42.61851 | 12.22639 | 14942 ft | 343 kts | 150° |
| 2026-05-04 18:52 | 42.59829 | 12.24318 | 14618 ft | 340 kts | 151° |
| 2026-05-04 18:53 | 42.57808 | 12.25970 | 14291 ft | 338 kts | 151° |
| 2026-05-04 18:53 | 42.55801 | 12.27589 | 13982 ft | 337 kts | 152° |
| 2026-05-04 18:53 | 42.53783 | 12.29202 | 13665 ft | 335 kts | 152° |
| 2026-05-04 18:53 | 42.51762 | 12.30812 | 13410 ft | 332 kts | 152° |
| 2026-05-04 18:54 | 42.49789 | 12.32381 | 13170 ft | 332 kts | 152° |
| 2026-05-04 18:54 | 42.47800 | 12.33964 | 12925 ft | 329 kts | 152° |
| 2026-05-04 18:54 | 42.45833 | 12.35530 | 12675 ft | 327 kts | 152° |
| 2026-05-04 18:54 | 42.43887 | 12.37078 | 12433 ft | 325 kts | 151° |
| 2026-05-04 18:55 | 42.41926 | 12.38637 | 12194 ft | 324 kts | 151° |
| 2026-05-04 18:55 | 42.38081 | 12.41692 | 11702 ft | 319 kts | 151° |
| 2026-05-04 18:55 | 42.36137 | 12.43148 | 11460 ft | 316 kts | 156° |
| 2026-05-04 18:56 | 42.34112 | 12.44254 | 11211 ft | 313 kts | 162° |
| 2026-05-04 18:56 | 42.32055 | 12.45130 | 10958 ft | 311 kts | 165° |
| 2026-05-04 18:56 | 42.29980 | 12.45940 | 10712 ft | 308 kts | 165° |
| 2026-05-04 18:56 | 42.27955 | 12.46736 | 10477 ft | 299 kts | 165° |
| 2026-05-04 18:57 | 42.25980 | 12.47443 | 10226 ft | 288 kts | 170° |
| 2026-05-04 18:57 | 42.24028 | 12.47612 | 9969 ft | 276 kts | 189° |
| 2026-05-04 18:57 | 42.22319 | 12.46654 | 9744 ft | 262 kts | 218° |
| 2026-05-04 18:57 | 42.21178 | 12.44867 | 9578 ft | 251 kts | 238° |
| 2026-05-04 18:58 | 42.20471 | 12.42747 | 9407 ft | 246 kts | 248° |
| 2026-05-04 18:58 | 42.19939 | 12.40546 | 9233 ft | 246 kts | 251° |
| 2026-05-04 18:58 | 42.19553 | 12.38307 | 9046 ft | 242 kts | 262° |
| 2026-05-04 18:58 | 42.19726 | 12.36090 | 8880 ft | 241 kts | 288° |
| 2026-05-04 18:59 | 42.20640 | 12.34167 | 8706 ft | 246 kts | 311° |
| 2026-05-04 18:59 | 42.21967 | 12.32750 | 8532 ft | 248 kts | 330° |
| 2026-05-04 18:59 | 42.23598 | 12.31901 | 8356 ft | 249 kts | 342° |
| 2026-05-04 18:59 | 42.25251 | 12.31285 | 8188 ft | 248 kts | 343° |
| 2026-05-04 19:00 | 42.26908 | 12.30634 | 8014 ft | 248 kts | 339° |
| 2026-05-04 19:00 | 42.28406 | 12.29521 | 7800 ft | 247 kts | 313° |
| 2026-05-04 19:00 | 42.29300 | 12.27599 | 7548 ft | 238 kts | 283° |
| 2026-05-04 19:00 | 42.29532 | 12.25446 | 7302 ft | 231 kts | 267° |
| 2026-05-04 19:01 | 42.29340 | 12.23328 | 7048 ft | 224 kts | 247° |
| 2026-05-04 19:01 | 42.28538 | 12.21598 | 6803 ft | 216 kts | 221° |
| 2026-05-04 19:01 | 42.27380 | 12.20330 | 6581 ft | 211 kts | 214° |
| 2026-05-04 19:01 | 42.26210 | 12.19157 | 6360 ft | 210 kts | 214° |
| 2026-05-04 19:02 | 42.25045 | 12.17969 | 6115 ft | 210 kts | 214° |
| 2026-05-04 19:02 | 42.23860 | 12.16827 | 5866 ft | 208 kts | 207° |
| 2026-05-04 19:02 | 42.22512 | 12.16227 | 5617 ft | 204 kts | 180° |
| 2026-05-04 19:02 | 42.21130 | 12.16590 | 5375 ft | 203 kts | 161° |
| 2026-05-04 19:03 | 42.19802 | 12.17210 | 5138 ft | 203 kts | 162° |
| 2026-05-04 19:03 | 42.18455 | 12.17776 | 4927 ft | 202 kts | 163° |
| 2026-05-04 19:03 | 42.17110 | 12.18329 | 4712 ft | 202 kts | 163° |
| 2026-05-04 19:03 | 42.15763 | 12.18885 | 4499 ft | 202 kts | 165° |
| 2026-05-04 19:04 | 42.14386 | 12.19129 | 4282 ft | 202 kts | 185° |
| 2026-05-04 19:04 | 42.13003 | 12.18720 | 4076 ft | 202 kts | 194° |
| 2026-05-04 19:04 | 42.11659 | 12.18231 | 3854 ft | 200 kts | 193° |
| 2026-05-04 19:04 | 42.10313 | 12.17803 | 3630 ft | 198 kts | 192° |
| 2026-05-04 19:05 | 42.08976 | 12.17403 | 3403 ft | 197 kts | 192° |
| 2026-05-04 19:05 | 42.07643 | 12.17011 | 3174 ft | 195 kts | 191° |
| 2026-05-04 19:05 | 42.06304 | 12.16963 | 3012 ft | 190 kts | 167° |
| 2026-05-04 19:05 | 42.05061 | 12.17534 | 2983 ft | 189 kts | 160° |
| 2026-05-04 19:06 | 42.03825 | 12.18105 | 2847 ft | 186 kts | 163° |
| 2026-05-04 19:06 | 42.02608 | 12.18613 | 2711 ft | 180 kts | 162° |
| 2026-05-04 19:06 | 42.01429 | 12.19107 | 2590 ft | 174 kts | 162° |
| 2026-05-04 19:06 | 42.00291 | 12.19588 | 2502 ft | 166 kts | 163° |
| 2026-05-04 19:07 | 41.99189 | 12.20051 | 2499 ft | 167 kts | 163° |
| 2026-05-04 19:07 | 41.98084 | 12.20514 | 2497 ft | 166 kts | 163° |
| 2026-05-04 19:07 | 41.96978 | 12.20978 | 2495 ft | 167 kts | 163° |
| 2026-05-04 19:07 | 41.95869 | 12.21443 | 2334 ft | 165 kts | 163° |
| 2026-05-04 19:08 | 41.94785 | 12.21897 | 2122 ft | 160 kts | 163° |
| 2026-05-04 19:08 | 41.93760 | 12.22326 | 1922 ft | 149 kts | 163° |
| 2026-05-04 19:08 | 41.92773 | 12.22738 | 1704 ft | 149 kts | 162° |
| 2026-05-04 19:08 | 41.91773 | 12.23157 | 1504 ft | 149 kts | 162° |
| 2026-05-04 19:09 | 41.90786 | 12.23571 | 1303 ft | 149 kts | 162° |
| 2026-05-04 19:09 | 41.89795 | 12.23985 | 1101 ft | 149 kts | 162° |
| 2026-05-04 19:09 | 41.88813 | 12.24395 | 906 ft | 149 kts | 162° |
| 2026-05-04 19:09 | 41.87823 | 12.24808 | 706 ft | 149 kts | 162° |
| 2026-05-04 19:10 | 41.86824 | 12.25225 | 506 ft | 149 kts | 163° |
| 2026-05-04 19:10 | 41.85836 | 12.25638 | 311 ft | 149 kts | 162° |
| 2026-05-04 19:10 | 41.84861 | 12.26053 | 136 ft | 144 kts | 163° |
| 2026-05-04 19:10 | 41.83952 | 12.26437 | 30 ft | 128 kts | 163° |
| 2026-05-04 19:11 | 41.83222 | 12.26731 | 10 ft | 84 kts | 165° |
| 2026-05-04 19:11 | 41.82820 | 12.26876 | 9 ft | 46 kts | 174° |
| 2026-05-04 19:11 | 41.82507 | 12.26812 | 9 ft | 41 kts | 193° |
| 2026-05-04 19:11 | 41.82320 | 12.26787 | 9 ft | 20 kts | 170° |
| 2026-05-04 19:12 | 41.82187 | 12.26837 | 9 ft | 18 kts | 163° |
| 2026-05-04 19:12 | 41.81956 | 12.26935 | 10 ft | 16 kts | 162° |
| 2026-05-04 19:12 | 41.81841 | 12.26982 | 10 ft | 17 kts | 162° |
| 2026-05-04 19:13 | 41.81722 | 12.27037 | 10 ft | 18 kts | 161° |
| 2026-05-04 19:13 | 41.81589 | 12.27087 | 10 ft | 24 kts | 164° |
| 2026-05-04 19:13 | 41.81414 | 12.27162 | 11 ft | 26 kts | 162° |
| 2026-05-04 19:13 | 41.81245 | 12.27232 | 11 ft | 24 kts | 163° |
| 2026-05-04 19:14 | 41.81087 | 12.27297 | 11 ft | 22 kts | 162° |
| 2026-05-04 19:14 | 41.80937 | 12.27351 | 11 ft | 21 kts | 174° |
| 2026-05-04 19:14 | 41.80795 | 12.27327 | 12 ft | 20 kts | 190° |
| 2026-05-04 19:14 | 41.80671 | 12.27265 | 12 ft | 18 kts | 226° |
| 2026-05-04 19:15 | 41.80622 | 12.27112 | 12 ft | 17 kts | 250° |
| 2026-05-04 19:15 | 41.80579 | 12.26952 | 12 ft | 20 kts | 249° |
| 2026-05-04 19:15 | 41.80527 | 12.26768 | 13 ft | 21 kts | 249° |
| 2026-05-04 19:15 | 41.80476 | 12.26588 | 14 ft | 19 kts | 249° |
| 2026-05-04 19:16 | 41.80432 | 12.26427 | 14 ft | 15 kts | 244° |
| 2026-05-04 19:16 | 41.80355 | 12.26373 | 14 ft | 12 kts | 172° |
| 2026-05-04 19:16 | 41.80274 | 12.26405 | 14 ft | 11 kts | 165° |
| 2026-05-04 19:16 | 41.80197 | 12.26397 | 14 ft | 12 kts | 199° |
| 2026-05-04 19:17 | 41.80109 | 12.26343 | 15 ft | 16 kts | 205° |
| 2026-05-04 19:17 | 41.79988 | 12.26269 | 15 ft | 20 kts | 205° |
| 2026-05-04 19:17 | 41.79861 | 12.26191 | 15 ft | 19 kts | 205° |
| 2026-05-04 19:17 | 41.79747 | 12.26106 | 15 ft | 16 kts | 213° |
| 2026-05-04 19:18 | 41.79660 | 12.26050 | 15 ft | 13 kts | 204° |
| 2026-05-04 19:18 | 41.79637 | 12.26024 | 15 ft | 2 kts | 264° |
| 2026-05-04 19:18 | 41.79643 | 12.25997 | 15 ft | 3 kts | 293° |
| 2026-05-04 19:18 | 41.79650 | 12.25976 | 15 ft | 0 kts | 294° |
| 2026-05-04 19:19 | 41.79653 | 12.25969 | 15 ft | 1 kts | 297° |
| 2026-05-04 19:19 | 41.79654 | 12.25965 | 15 ft | 0 kts | 296° |